createdAt,value
2019-05-18T00:01:26.827Z,94545.54
2019-05-18T00:03:58.824Z,94554.23
2019-05-18T00:06:30.636Z,94560.47
2019-05-18T00:09:02.191Z,94562.81
2019-05-18T00:11:35.260Z,94549.90
2019-05-18T00:14:07.066Z,94550.87
2019-05-18T00:16:38.607Z,94552.37
2019-05-18T00:19:10.296Z,94557.78
2019-05-18T00:21:41.899Z,94555.83
2019-05-18T00:24:13.531Z,94552.05
2019-05-18T00:26:45.529Z,94557.39
2019-05-18T00:29:17.307Z,94560.20
2019-05-18T00:31:49.044Z,94562.42
2019-05-18T00:34:20.786Z,94558.25
2019-05-18T00:36:52.676Z,94552.04
2019-05-18T00:39:24.385Z,94557.61
2019-05-18T00:41:56.100Z,94556.94
2019-05-18T00:44:27.875Z,94549.41
2019-05-18T00:46:59.528Z,94550.50
2019-05-18T00:49:31.246Z,94540.60
2019-05-18T00:52:02.989Z,94543.03
2019-05-18T00:54:34.839Z,94547.05
2019-05-18T00:57:06.832Z,94553.39
2019-05-18T00:59:38.658Z,94545.63
2019-05-18T01:02:10.309Z,94547.53
2019-05-18T01:04:41.911Z,94555.61
2019-05-18T01:07:13.808Z,94555.36
2019-05-18T01:09:45.332Z,94549.83
2019-05-18T01:12:17.211Z,94549.32
2019-05-18T01:14:48.932Z,94557.52
2019-05-18T01:17:21.536Z,94554.75
2019-05-18T01:19:53.313Z,94555.69
2019-05-18T01:22:24.811Z,94561.83
2019-05-18T01:24:56.196Z,94563.52
2019-05-18T01:27:28.244Z,94564.47
2019-05-18T01:29:59.941Z,94561.06
2019-05-18T01:32:31.608Z,94561.47
2019-05-18T01:35:03.238Z,94559.55
2019-05-18T01:37:34.926Z,94562.52
2019-05-18T01:40:07.542Z,94556.26
2019-05-18T01:42:39.268Z,94553.48
2019-05-18T01:45:16.878Z,94547.84
2019-05-18T01:47:44.882Z,94542.88
2019-05-18T01:50:16.503Z,94548.80
2019-05-18T01:52:48.316Z,94548.80
2019-05-18T01:55:19.965Z,94535.55
2019-05-18T01:57:51.569Z,94531.42
2019-05-18T02:00:23.732Z,94535.95
2019-05-18T02:02:55.429Z,94530.66
2019-05-18T02:05:27.267Z,94521.47
2019-05-18T02:07:58.990Z,94517.55
2019-05-18T02:10:31.015Z,94514.38
2019-05-18T02:13:02.918Z,94509.10
2019-05-18T02:15:35.690Z,94514.43
2019-05-18T02:18:07.687Z,94513.72
2019-05-18T02:20:39.492Z,94512.89
2019-05-18T02:23:11.318Z,94515.17
2019-05-18T02:25:43.041Z,94517.45
2019-05-18T02:28:15.010Z,94518.81
2019-05-18T02:30:46.783Z,94522.14
2019-05-18T02:33:18.270Z,94514.53
2019-05-18T02:35:49.927Z,94513.36
2019-05-18T02:38:21.617Z,94518.54
2019-05-18T02:40:53.114Z,94511.17
2019-05-18T02:43:24.509Z,94507.34
2019-05-18T02:45:56.258Z,94515.45
2019-05-18T02:48:27.973Z,94513.57
2019-05-18T02:50:59.563Z,94512.22
2019-05-18T02:53:31.029Z,94510.42
2019-05-18T02:56:03.889Z,94508.05
2019-05-18T02:58:35.880Z,94513.87
2019-05-18T03:01:07.632Z,94509.71
2019-05-18T03:03:39.255Z,94507.86
2019-05-18T03:06:11.369Z,94505.42
2019-05-18T03:08:43.092Z,94497.08
2019-05-18T03:11:15.064Z,94503.13
2019-05-18T03:13:46.593Z,94513.11
2019-05-18T03:16:18.431Z,94515.88
2019-05-18T03:19:06.935Z,94509.16
2019-05-18T03:21:24.150Z,94508.66
2019-05-18T03:23:55.702Z,94508.88
2019-05-18T03:26:27.379Z,94509.62
2019-05-18T03:28:59.476Z,94512.22
2019-05-18T03:31:31.428Z,94510.06
2019-05-18T03:34:03.287Z,94516.25
2019-05-18T03:36:35.490Z,94515.36
2019-05-18T03:39:08.041Z,94512.74
2019-05-18T03:41:39.551Z,94519.25
2019-05-18T03:44:11.093Z,94519.83
2019-05-18T03:46:43.916Z,94517.52
2019-05-18T03:49:26.422Z,94517.05
2019-05-18T03:51:49.127Z,94515.27
2019-05-18T03:54:20.891Z,94520.59
2019-05-18T03:56:52.758Z,94517.69
2019-05-18T03:59:24.277Z,94519.43
2019-05-18T04:01:57.852Z,94517.58
2019-05-18T04:04:29.463Z,94516.75
2019-05-18T04:07:00.779Z,94527.11
2019-05-18T04:09:32.583Z,94527.27
2019-05-18T04:12:04.314Z,94538.70
2019-05-18T04:14:35.833Z,94534.41
2019-05-18T04:17:07.644Z,94530.31
2019-05-18T04:19:46.199Z,94531.64
2019-05-18T04:22:12.843Z,94537.10
2019-05-18T04:24:44.404Z,94537.13
2019-05-18T04:27:17.256Z,94541.84
2019-05-18T04:29:48.820Z,94540.70
2019-05-18T04:32:20.608Z,94539.38
2019-05-18T04:34:52.240Z,94537.66
2019-05-18T04:37:23.749Z,94543.82
2019-05-18T04:39:56.271Z,94538.45
2019-05-18T04:42:27.924Z,94538.45
2019-05-18T04:44:59.725Z,94536.20
2019-05-18T04:47:31.255Z,94530.97
2019-05-18T04:50:05.640Z,94524.63
2019-05-18T04:52:36.615Z,94530.33
2019-05-18T04:55:08.637Z,94524.49
2019-05-18T04:57:40.273Z,94525.64
2019-05-18T05:00:12.448Z,94527.77
2019-05-18T05:02:44.133Z,94525.95
2019-05-18T05:05:15.888Z,94531.25
2019-05-18T05:07:47.691Z,94536.89
2019-05-18T05:10:19.366Z,94532.89
2019-05-18T05:12:51.194Z,94532.94
2019-05-18T05:15:22.725Z,94532.93
2019-05-18T05:17:54.606Z,94534.48
2019-05-18T05:20:26.568Z,94542.30
2019-05-18T05:22:58.351Z,94535.37
2019-05-18T05:25:30.060Z,94538.03
2019-05-18T05:28:01.635Z,94541.48
2019-05-18T05:30:33.337Z,94545.00
2019-05-18T05:33:05.289Z,94547.19
2019-05-18T05:35:37.828Z,94553.06
2019-05-18T05:38:09.946Z,94554.62
2019-05-18T05:40:41.535Z,94555.76
2019-05-18T05:43:13.174Z,94557.52
2019-05-18T05:45:45.157Z,94562.31
2019-05-18T05:48:16.717Z,94562.08
2019-05-18T05:50:48.573Z,94567.92
2019-05-18T05:53:20.371Z,94570.33
2019-05-18T05:55:51.967Z,94576.45
2019-05-18T05:58:23.686Z,94571.21
2019-05-18T06:00:55.385Z,94570.42
2019-05-18T06:03:26.867Z,94572.28
2019-05-18T06:05:58.454Z,94570.14
2019-05-18T06:08:30.487Z,94584.52
2019-05-18T06:11:02.128Z,94580.83
2019-05-18T06:13:33.785Z,94587.42
2019-05-18T06:16:06.772Z,94591.80
2019-05-18T06:18:38.471Z,94588.58
2019-05-18T06:21:10.017Z,94594.61
2019-05-18T06:23:41.843Z,94586.02
2019-05-18T06:26:13.533Z,94593.19
2019-05-18T06:28:45.343Z,94596.21
2019-05-18T06:31:16.959Z,94596.86
2019-05-18T06:33:48.449Z,94594.88
2019-05-18T06:36:20.263Z,94593.08
2019-05-18T06:38:52.017Z,94589.89
2019-05-18T06:41:23.970Z,94595.20
2019-05-18T06:43:58.416Z,94595.55
2019-05-18T06:46:29.228Z,94598.23
2019-05-18T06:49:00.957Z,94594.78
2019-05-18T06:51:32.860Z,94603.30
2019-05-18T06:54:04.398Z,94600.68
2019-05-18T06:56:37.656Z,94596.95
2019-05-18T06:59:10.955Z,94599.33
2019-05-18T07:01:42.731Z,94596.43
2019-05-18T07:04:14.501Z,94596.42
2019-05-18T07:06:46.327Z,94594.28
2019-05-18T07:09:17.816Z,94595.33
2019-05-18T07:11:49.759Z,94593.66
2019-05-18T07:14:25.733Z,94594.69
2019-05-18T07:16:56.832Z,94592.82
2019-05-18T07:19:28.354Z,94594.92
2019-05-18T07:22:00.254Z,94592.69
2019-05-18T07:24:31.799Z,94585.59
2019-05-18T07:27:04.100Z,94594.12
2019-05-18T07:29:36.683Z,94584.81
2019-05-18T07:32:08.396Z,94579.72
2019-05-18T07:34:40.246Z,94580.34
2019-05-18T07:37:11.912Z,94579.44
2019-05-18T07:39:43.462Z,94581.59
2019-05-18T07:42:15.216Z,94577.67
2019-05-18T07:44:46.740Z,94568.13
2019-05-18T07:47:18.320Z,94564.73
2019-05-18T07:49:49.721Z,94557.89
2019-05-18T07:52:21.284Z,94558.81
2019-05-18T07:54:55.869Z,94551.66
2019-05-18T07:57:27.725Z,94550.18
2019-05-18T07:59:59.392Z,94553.42
2019-05-18T08:02:31.122Z,94545.33
2019-05-18T08:05:02.755Z,94537.00
2019-05-18T08:07:34.561Z,94531.98
2019-05-18T08:10:07.799Z,94529.78
2019-05-18T08:12:39.505Z,94525.34
2019-05-18T08:15:12.375Z,94513.80
2019-05-18T08:17:44.048Z,94520.69
2019-05-18T08:20:16.047Z,94511.00
2019-05-18T08:22:47.722Z,94508.55
2019-05-18T08:25:20.393Z,94500.80
2019-05-18T08:27:52.186Z,94502.85
2019-05-18T08:30:24.173Z,94501.77
2019-05-18T08:32:56.029Z,94496.84
2019-05-18T08:35:27.929Z,94495.19
2019-05-18T08:37:59.856Z,94493.16
2019-05-18T08:40:31.838Z,94491.13
2019-05-18T08:43:03.466Z,94494.44
2019-05-18T08:45:37.923Z,94497.76
2019-05-18T08:48:09.529Z,94497.07
2019-05-18T08:50:41.549Z,94492.56
2019-05-18T08:53:13.145Z,94498.05
2019-05-18T08:55:45.094Z,94495.09
2019-05-18T08:58:16.882Z,94500.80
2019-05-18T09:00:48.678Z,94494.44
2019-05-18T09:03:20.655Z,94498.41
2019-05-18T09:05:52.180Z,94501.20
2019-05-18T09:08:23.841Z,94493.30
2019-05-18T09:10:55.355Z,94496.69
2019-05-18T09:13:26.967Z,94488.16
2019-05-18T09:15:59.086Z,94481.09
2019-05-18T09:18:30.988Z,94476.93
2019-05-18T09:21:03.228Z,94467.70
2019-05-18T09:23:35.375Z,94474.12
2019-05-18T09:30:58.365Z,94451.89
2019-05-18T09:33:30.133Z,94447.22
2019-05-18T09:36:01.827Z,94446.86
2019-05-18T09:38:33.666Z,94446.88
2019-05-18T09:41:05.601Z,94449.33
2019-05-18T09:43:37.266Z,94445.23
2019-05-18T09:46:09.426Z,94445.91
2019-05-18T09:48:42.126Z,94444.19
2019-05-18T09:51:13.964Z,94448.61
2019-05-18T09:53:51.614Z,94435.38
2019-05-18T09:56:18.932Z,94439.88
2019-05-18T09:58:50.749Z,94429.77
2019-05-18T10:01:22.379Z,94433.03
2019-05-18T10:03:54.017Z,94426.92
2019-05-18T10:06:25.756Z,94427.95
2019-05-18T10:08:57.465Z,94422.92
2019-05-18T10:11:29.522Z,94414.91
2019-05-18T10:14:01.148Z,94419.08
2019-05-18T10:16:32.925Z,94415.24
2019-05-18T10:19:04.592Z,94404.17
2019-05-18T10:21:36.089Z,94403.27
2019-05-18T10:24:07.813Z,94401.69
2019-05-18T10:26:39.596Z,94405.06
2019-05-18T10:29:11.311Z,94393.86
2019-05-18T10:31:43.202Z,94393.82
2019-05-18T10:34:15.085Z,94396.38
2019-05-18T10:36:46.794Z,94386.61
2019-05-18T10:39:18.348Z,94390.39
2019-05-18T10:41:50.174Z,94391.23
2019-05-18T10:44:22.275Z,94387.95
2019-05-18T10:46:53.917Z,94386.05
2019-05-18T10:49:25.450Z,94387.97
2019-05-18T10:51:58.621Z,94391.11
2019-05-18T10:54:30.360Z,94386.55
2019-05-18T10:57:02.829Z,94379.88
2019-05-18T10:59:34.791Z,94380.14
2019-05-18T11:02:06.927Z,94373.19
2019-05-18T11:04:38.632Z,94369.84
2019-05-18T11:07:10.267Z,94364.09
2019-05-18T11:09:42.001Z,94365.16
2019-05-18T11:12:13.679Z,94362.70
2019-05-18T11:14:45.369Z,94361.56
2019-05-18T11:17:16.950Z,94360.02
2019-05-18T11:19:49.028Z,94358.91
2019-05-18T11:22:20.890Z,94352.63
2019-05-18T11:24:52.915Z,94357.02
2019-05-18T11:27:25.868Z,94350.25
2019-05-18T11:29:57.494Z,94350.25
2019-05-18T11:32:29.564Z,94356.95
2019-05-18T11:35:01.246Z,94355.33
2019-05-18T11:40:03.422Z,94361.95
2019-05-18T11:42:35.489Z,94359.30
2019-05-18T11:45:09.164Z,94355.91
2019-05-18T11:47:41.146Z,94354.36
2019-05-18T11:50:15.122Z,94350.05
2019-05-18T11:52:46.881Z,94349.83
2019-05-18T11:55:19.639Z,94350.72
2019-05-18T11:57:51.465Z,94353.66
2019-05-18T12:00:25.346Z,94357.03
2019-05-18T12:02:57.278Z,94367.60
2019-05-18T12:05:28.805Z,94362.98
2019-05-18T12:08:00.283Z,94369.13
2019-05-18T12:10:32.158Z,94368.11
2019-05-18T12:13:03.987Z,94367.13
2019-05-18T12:15:35.794Z,94371.64
2019-05-18T12:18:07.520Z,94373.61
2019-05-18T12:20:39.385Z,94372.02
2019-05-18T12:23:11.279Z,94365.52
2019-05-18T12:25:43.122Z,94346.67
2019-05-18T12:28:14.565Z,94343.20
2019-05-18T12:30:46.211Z,94342.41
2019-05-18T12:33:17.961Z,94330.37
2019-05-18T12:35:49.726Z,94322.59
2019-05-18T12:38:21.302Z,94314.48
2019-05-18T12:40:53.146Z,94312.86
2019-05-18T12:43:24.695Z,94303.77
2019-05-18T12:45:56.594Z,94312.77
2019-05-18T12:48:28.478Z,94305.79
2019-05-18T12:51:00.211Z,94304.47
2019-05-18T12:53:31.835Z,94302.42
2019-05-18T12:56:03.585Z,94300.27
2019-05-18T12:58:37.589Z,94290.11
2019-05-18T13:01:08.752Z,94285.44
2019-05-18T13:03:40.485Z,94277.20
2019-05-18T13:06:12.058Z,94282.08
2019-05-18T13:08:44.100Z,94268.63
2019-05-18T13:11:15.702Z,94273.44
2019-05-18T13:13:47.541Z,94269.88
2019-05-18T13:16:19.339Z,94267.98
2019-05-18T13:18:50.880Z,94261.95
2019-05-18T13:21:22.554Z,94260.58
2019-05-18T13:23:54.447Z,94256.17
2019-05-18T13:26:26.349Z,94258.99
2019-05-18T13:28:58.361Z,94253.75
2019-05-18T13:31:30.104Z,94254.55
2019-05-18T13:34:01.926Z,94254.66
2019-05-18T13:36:33.625Z,94255.91
2019-05-18T13:39:06.128Z,94247.22
2019-05-18T13:41:37.742Z,94249.69
2019-05-18T13:44:09.590Z,94235.89
2019-05-18T13:46:41.507Z,94238.22
2019-05-18T13:49:12.949Z,94244.45
2019-05-18T13:51:44.541Z,94238.30
2019-05-18T13:54:16.189Z,94240.06
2019-05-18T13:56:50.710Z,94236.09
2019-05-18T13:59:22.541Z,94229.51
2019-05-18T14:01:55.140Z,94220.43
2019-05-18T14:04:26.923Z,94220.86
2019-05-18T14:06:58.610Z,94219.30
2019-05-18T14:09:30.223Z,94213.55
2019-05-18T14:12:01.868Z,94218.81
2019-05-18T14:14:33.573Z,94206.34
2019-05-18T14:17:05.410Z,94213.88
2019-05-18T14:19:37.268Z,94214.23
2019-05-18T14:22:09.206Z,94210.29
2019-05-18T14:24:41.461Z,94203.86
2019-05-18T14:27:13.174Z,94209.34
2019-05-18T14:29:44.850Z,94209.50
2019-05-18T14:32:16.548Z,94211.47
2019-05-18T14:34:48.548Z,94214.61
2019-05-18T14:37:20.031Z,94206.20
2019-05-18T14:39:51.833Z,94204.98
2019-05-18T14:42:23.769Z,94194.80
2019-05-18T14:44:55.522Z,94198.73
2019-05-18T14:47:27.649Z,94197.62
2019-05-18T14:49:59.397Z,94193.50
2019-05-18T14:52:30.835Z,94194.58
2019-05-18T14:55:02.882Z,94193.20
2019-05-18T14:57:34.417Z,94189.63
2019-05-18T15:00:07.079Z,94186.77
2019-05-18T15:02:38.788Z,94184.45
2019-05-18T15:05:10.659Z,94185.45
2019-05-18T15:07:42.353Z,94182.20
2019-05-18T15:10:15.587Z,94179.31
2019-05-18T15:12:47.115Z,94183.78
2019-05-18T15:15:18.763Z,94175.38
2019-05-18T15:17:50.969Z,94183.22
2019-05-18T15:20:22.877Z,94175.25
2019-05-18T15:22:54.726Z,94181.66
2019-05-18T15:25:26.761Z,94181.08
2019-05-18T15:27:58.436Z,94183.31
2019-05-18T15:30:30.019Z,94189.16
2019-05-18T15:33:01.827Z,94183.23
2019-05-18T15:35:33.531Z,94186.83
2019-05-18T15:38:05.447Z,94194.50
2019-05-18T15:40:37.173Z,94186.27
2019-05-18T15:43:09.288Z,94188.80
2019-05-18T15:45:40.730Z,94192.92
2019-05-18T15:48:12.442Z,94188.13
2019-05-18T15:50:44.017Z,94191.26
2019-05-18T15:53:15.637Z,94189.14
2019-05-18T15:55:47.586Z,94189.38
2019-05-18T15:58:19.295Z,94192.95
2019-05-18T16:00:50.917Z,94187.44
2019-05-18T16:03:22.477Z,94191.95
2019-05-18T16:05:54.148Z,94190.94
2019-05-18T16:08:25.752Z,94187.11
2019-05-18T16:10:57.684Z,94190.38
2019-05-18T16:13:29.346Z,94190.59
2019-05-18T16:16:01.066Z,94191.73
2019-05-18T16:18:32.598Z,94188.12
2019-05-18T16:21:04.372Z,94194.19
2019-05-18T16:23:36.500Z,94186.77
2019-05-18T16:26:20.721Z,94193.61
2019-05-18T16:28:41.561Z,94191.67
2019-05-18T16:31:13.243Z,94194.05
2019-05-18T16:33:45.185Z,94186.28
2019-05-18T16:36:16.862Z,94186.55
2019-05-18T16:38:48.529Z,94186.12
2019-05-18T16:41:20.165Z,94184.87
2019-05-18T16:43:52.054Z,94180.97
2019-05-18T16:46:23.614Z,94180.55
2019-05-18T16:48:55.527Z,94180.55
2019-05-18T16:51:27.414Z,94173.30
2019-05-18T16:53:59.066Z,94174.64
2019-05-18T16:56:35.252Z,94179.12
2019-05-18T16:59:05.026Z,94179.57
2019-05-18T17:01:36.520Z,94176.08
2019-05-18T17:04:07.947Z,94172.78
2019-05-18T17:06:40.162Z,94173.18
2019-05-18T17:09:12.064Z,94173.73
2019-05-18T17:11:44.063Z,94173.10
2019-05-18T17:14:17.598Z,94178.99
2019-05-18T17:16:49.287Z,94187.16
2019-05-18T17:19:21.155Z,94190.66
2019-05-18T17:21:52.916Z,94188.43
2019-05-18T17:24:24.790Z,94192.16
2019-05-18T17:26:56.465Z,94193.71
2019-05-18T17:29:28.266Z,94197.72
2019-05-18T17:32:00.245Z,94200.63
2019-05-18T17:34:32.027Z,94200.30
2019-05-18T17:37:04.198Z,94203.90
2019-05-18T17:39:36.068Z,94206.27
2019-05-18T17:42:07.798Z,94210.78
2019-05-18T17:44:39.333Z,94206.54
2019-05-18T17:47:12.074Z,94210.39
2019-05-18T17:49:43.897Z,94216.16
2019-05-18T17:52:15.540Z,94215.69
2019-05-18T17:54:47.303Z,94219.02
2019-05-18T17:57:18.924Z,94222.72
2019-05-18T17:59:50.549Z,94228.80
2019-05-18T18:02:24.589Z,94221.91
2019-05-18T18:04:56.345Z,94234.25
2019-05-18T18:07:27.993Z,94233.69
2019-05-18T18:09:59.732Z,94239.55
2019-05-18T18:12:31.595Z,94240.14
2019-05-18T18:15:03.685Z,94248.05
2019-05-18T18:17:36.007Z,94250.80
2019-05-18T18:20:07.786Z,94255.13
2019-05-18T18:22:39.363Z,94257.36
2019-05-18T18:25:11.667Z,94267.77
2019-05-18T18:27:43.157Z,94265.44
2019-05-18T18:30:15.312Z,94262.74
2019-05-18T18:32:47.542Z,94267.33
2019-05-18T18:35:19.177Z,94270.76
2019-05-18T18:37:50.850Z,94268.17
2019-05-18T18:40:22.885Z,94278.45
2019-05-18T18:42:54.611Z,94283.40
2019-05-18T18:45:26.268Z,94289.56
2019-05-18T18:47:58.002Z,94298.08
2019-05-18T18:50:29.640Z,94302.09
2019-05-18T18:53:01.499Z,94305.42
2019-05-18T18:55:33.320Z,94305.48
2019-05-18T18:58:04.842Z,94304.78
2019-05-18T19:00:36.956Z,94304.16
2019-05-18T19:03:08.839Z,94304.99
2019-05-18T19:05:40.604Z,94306.20
2019-05-18T19:08:13.742Z,94306.24
2019-05-18T19:10:45.653Z,94310.06
2019-05-18T19:13:17.238Z,94310.47
2019-05-18T19:15:48.669Z,94312.44
2019-05-18T19:18:20.386Z,94318.74
2019-05-18T19:20:52.386Z,94322.80
2019-05-18T19:23:23.970Z,94322.48
2019-05-18T19:25:56.004Z,94320.60
2019-05-18T19:28:27.631Z,94317.92
2019-05-18T19:30:59.467Z,94317.97
2019-05-18T19:33:31.318Z,94312.15
2019-05-18T19:36:03.293Z,94306.94
2019-05-18T19:38:35.132Z,94312.43
2019-05-18T19:41:06.788Z,94314.67
2019-05-18T19:43:38.590Z,94318.34
2019-05-18T19:46:10.465Z,94315.89
2019-05-18T19:48:42.069Z,94306.84
2019-05-18T19:51:16.053Z,94305.86
2019-05-18T19:53:47.692Z,94322.67
2019-05-18T19:56:19.601Z,94322.59
2019-05-18T19:58:51.340Z,94322.23
2019-05-18T20:01:23.044Z,94323.59
2019-05-18T20:03:55.775Z,94323.66
2019-05-18T20:06:27.447Z,94325.63
2019-05-18T20:08:58.934Z,94332.63
2019-05-18T20:11:30.722Z,94334.22
2019-05-18T20:14:03.215Z,94333.39
2019-05-18T20:16:34.675Z,94332.45
2019-05-18T20:19:06.508Z,94336.53
2019-05-18T20:21:38.274Z,94338.95
2019-05-18T20:24:10.266Z,94333.68
2019-05-18T20:26:42.027Z,94332.61
2019-05-18T20:29:13.734Z,94342.42
2019-05-18T20:31:45.390Z,94345.17
2019-05-18T20:34:17.308Z,94342.55
2019-05-18T20:36:49.029Z,94337.77
2019-05-18T20:39:20.931Z,94328.86
2019-05-18T20:41:52.808Z,94326.13
2019-05-18T20:44:24.498Z,94339.59
2019-05-18T20:46:56.271Z,94345.23
2019-05-18T20:49:28.154Z,94337.20
2019-05-18T20:51:59.911Z,94345.84
2019-05-18T20:54:31.875Z,94346.22
2019-05-18T20:57:03.300Z,94340.08
2019-05-18T20:59:35.211Z,94343.75
2019-05-18T21:02:08.065Z,94342.75
2019-05-18T21:04:39.819Z,94334.11
2019-05-18T21:07:11.504Z,94335.53
2019-05-18T21:09:43.255Z,94345.01
2019-05-18T21:12:14.927Z,94349.66
2019-05-18T21:14:46.566Z,94348.95
2019-05-18T21:17:17.850Z,94341.06
2019-05-18T21:19:49.560Z,94359.20
2019-05-18T21:22:21.204Z,94357.53
2019-05-18T21:24:53.134Z,94362.30
2019-05-18T21:27:24.776Z,94347.16
2019-05-18T21:29:56.289Z,94351.66
2019-05-18T21:32:27.956Z,94344.89
2019-05-18T21:34:59.731Z,94353.44
2019-05-18T21:37:31.555Z,94344.11
2019-05-18T21:40:03.282Z,94352.38
2019-05-18T21:42:35.147Z,94353.44
2019-05-18T21:45:07.492Z,94355.99
2019-05-18T21:47:39.398Z,94355.70
2019-05-18T21:50:11.677Z,94355.70
2019-05-18T21:52:43.213Z,94353.78
2019-05-18T21:55:15.046Z,94358.80
2019-05-18T21:57:46.692Z,94354.55
2019-05-18T22:00:18.867Z,94353.06
2019-05-18T22:02:52.271Z,94351.34
2019-05-18T22:05:24.140Z,94346.09
2019-05-18T22:07:55.804Z,94344.66
2019-05-18T22:10:27.534Z,94351.08
2019-05-18T22:12:59.148Z,94348.75
2019-05-18T22:15:31.068Z,94354.12
2019-05-18T22:18:05.888Z,94351.31
2019-05-18T22:20:43.646Z,94355.05
2019-05-18T22:23:11.264Z,94343.84
2019-05-18T22:25:43.220Z,94344.27
2019-05-18T22:28:14.943Z,94343.99
2019-05-18T22:30:46.697Z,94346.64
2019-05-18T22:33:18.380Z,94356.41
2019-05-18T22:35:50.252Z,94345.35
2019-05-18T22:38:21.999Z,94347.20
2019-05-18T22:40:53.628Z,94338.95
2019-05-18T22:43:25.307Z,94336.80
2019-05-18T22:45:56.868Z,94341.48
2019-05-18T22:48:40.779Z,94336.39
2019-05-18T22:51:00.537Z,94344.81
2019-05-18T22:53:32.390Z,94344.41
2019-05-18T22:56:04.026Z,94352.56
2019-05-18T22:58:35.547Z,94348.02
2019-05-18T23:01:07.396Z,94345.56
2019-05-18T23:03:39.078Z,94346.69
2019-05-18T23:06:11.006Z,94344.93
2019-05-18T23:08:42.886Z,94346.14
2019-05-18T23:11:14.708Z,94344.79
2019-05-18T23:13:46.626Z,94351.07
2019-05-18T23:16:18.449Z,94341.41
2019-05-18T23:18:56.690Z,94347.16
2019-05-18T23:21:23.844Z,94353.64
2019-05-18T23:23:55.464Z,94348.53
2019-05-18T23:26:27.212Z,94345.98
2019-05-18T23:29:00.354Z,94342.12
2019-05-18T23:31:32.052Z,94348.81
2019-05-18T23:34:03.675Z,94351.02
2019-05-18T23:36:35.685Z,94342.53
2019-05-18T23:39:08.016Z,94343.39
2019-05-18T23:41:39.785Z,94352.74
2019-05-18T23:44:11.561Z,94346.27
2019-05-18T23:46:43.283Z,94355.02
2019-05-18T23:49:15.307Z,94357.81
2019-05-18T23:51:47.140Z,94353.13
2019-05-18T23:54:18.884Z,94358.58
2019-05-18T23:56:51.006Z,94351.92
2019-05-18T23:59:22.843Z,94355.29
